Time;durP1;ratioP1;P1;durP2;ratioP2;P2;SDS_P1;SDS_P2;PMS_P1;PMS_P2;Temp;Humidity;BMP_temperature;BMP_pressure;BME280_temperature;BME280_humidity;BME280_pressure;Samples;Min_cycle;Max_cycle;Signal;HPM_P1;HPM_P2
2021/06/22 00:00:33;;;;;;;5.83;3.50;;;;;;;21.91;68.65;96102.34;5051237;28;20207;-69
2021/06/22 00:03:00;;;;;;;6.23;4.00;;;;;;;21.77;69.24;96109.94;5051135;28;20425;-69
2021/06/22 00:05:27;;;;;;;12.90;4.13;;;;;;;21.79;69.45;96112.38;5034751;28;20960;-70
2021/06/22 00:07:54;;;;;;;6.43;3.77;;;;;;;21.74;69.60;96115.75;5044686;28;20522;-69
2021/06/22 00:10:25;;;;;;;4.77;3.67;;;;;;;21.62;69.72;96131.91;5049855;28;20453;-70
2021/06/22 00:12:51;;;;;;;5.27;4.30;;;;;;;21.33;71.54;96129.41;5050978;28;20868;-69
2021/06/22 00:15:20;;;;;;;5.10;3.93;;;;;;;20.98;72.81;96127.88;5049253;28;20421;-69
2021/06/22 00:17:46;;;;;;;5.50;4.23;;;;;;;20.58;74.09;96136.84;5049837;28;20422;-69
2021/06/22 00:20:12;;;;;;;5.13;4.23;;;;;;;20.62;74.55;96131.81;5050574;28;20469;-68
2021/06/22 00:22:39;;;;;;;5.30;4.57;;;;;;;20.59;73.84;96130.47;5048177;28;20476;-69
2021/06/22 00:25:06;;;;;;;6.40;3.97;;;;;;;20.44;74.78;96131.03;5050680;28;20430;-67
2021/06/22 00:27:32;;;;;;;5.63;4.43;;;;;;;20.67;73.73;96129.25;5051012;28;20422;-68
2021/06/22 00:29:58;;;;;;;6.73;4.80;;;;;;;20.95;71.83;96124.91;5049651;28;20943;-69
2021/06/22 00:32:23;;;;;;;6.53;4.30;;;;;;;21.08;71.37;96123.72;5050640;28;20313;-69
2021/06/22 00:34:49;;;;;;;7.80;3.83;;;;;;;21.21;70.78;96127.91;5049549;28;20199;-69
2021/06/22 00:37:16;;;;;;;4.63;3.60;;;;;;;20.85;71.45;96133.53;5050537;28;20186;-68
2021/06/22 00:39:43;;;;;;;5.30;4.20;;;;;;;20.84;71.92;96129.25;5046081;28;20304;-68
2021/06/22 00:42:09;;;;;;;5.63;4.87;;;;;;;20.74;72.27;96119.22;5054642;28;20432;-68
2021/06/22 00:44:49;;;;;;;6.83;4.43;;;;;;;20.75;71.83;96126.19;5054551;28;20436;-68
2021/06/22 00:47:16;;;;;;;4.50;4.10;;;;;;;20.85;71.72;96130.88;5054583;28;20436;-69
2021/06/22 00:49:42;;;;;;;5.10;3.60;;;;;;;20.84;70.76;96126.59;5053505;28;20496;-69
2021/06/22 00:52:08;;;;;;;4.60;3.50;;;;;;;20.82;70.65;96120.72;5053397;28;20518;-70
2021/06/22 00:54:35;;;;;;;4.77;3.73;;;;;;;20.41;72.42;96119.00;5054103;28;20877;-69
2021/06/22 00:57:02;;;;;;;4.63;3.70;;;;;;;20.57;70.81;96108.59;5052740;28;20191;-68
2021/06/22 00:59:29;;;;;;;3.90;3.37;;;;;;;20.30;71.31;96114.56;5054040;28;20465;-69
2021/06/22 01:01:55;;;;;;;6.70;4.27;;;;;;;20.19;72.67;96107.47;5054266;28;20893;-69
2021/06/22 01:04:20;;;;;;;6.30;3.37;;;;;;;20.52;71.17;96113.88;5054342;28;20540;-70
2021/06/22 01:06:46;;;;;;;6.40;3.50;;;;;;;20.54;70.65;96119.75;5054649;28;20558;-68
2021/06/22 01:09:12;;;;;;;4.00;3.43;;;;;;;20.48;70.62;96120.72;5046171;28;20245;-69
2021/06/22 01:11:38;;;;;;;5.40;3.53;;;;;;;20.77;69.88;96120.66;5054499;28;20197;-68
2021/06/22 01:14:03;;;;;;;4.20;3.20;;;;;;;20.72;69.09;96121.34;5053716;28;20202;-67
2021/06/22 01:16:29;;;;;;;8.53;3.43;;;;;;;20.64;69.82;96119.09;5052519;28;21007;-70
2021/06/22 01:19:06;;;;;;;7.17;3.33;;;;;;;20.49;70.85;96125.78;5055020;28;20666;-69
2021/06/22 01:21:32;;;;;;;4.60;3.13;;;;;;;20.63;70.10;96128.94;5036917;28;20433;-69
2021/06/22 01:24:05;;;;;;;4.80;3.43;;;;;;;20.66;69.52;96132.97;5054045;28;20425;-69
2021/06/22 01:26:32;;;;;;;6.63;3.67;;;;;;;20.65;69.22;96126.03;5039498;28;20427;-68
2021/06/22 01:28:57;;;;;;;7.67;3.47;;;;;;;20.45;69.84;96127.34;5055707;28;22261;-68
2021/06/22 01:31:23;;;;;;;5.13;3.60;;;;;;;20.09;71.14;96108.91;5057225;28;20509;-69
2021/06/22 01:33:48;;;;;;;4.43;3.33;;;;;;;20.47;70.32;96113.78;5046121;28;20170;-69
2021/06/22 01:36:14;;;;;;;4.73;2.73;;;;;;;20.55;69.47;96114.19;5054304;28;20178;-68
2021/06/22 01:38:40;;;;;;;6.23;3.27;;;;;;;20.70;69.09;96121.59;5039804;28;20191;-67
2021/06/22 01:41:06;;;;;;;7.10;3.33;;;;;;;20.77;68.45;96118.00;5057472;28;20190;-68
2021/06/22 01:43:31;;;;;;;4.00;3.70;;;;;;;20.50;69.21;96124.72;5052595;28;20903;-69
2021/06/22 01:45:57;;;;;;;6.23;3.60;;;;;;;20.51;68.92;96123.69;5052397;28;20175;-69
2021/06/22 01:48:22;;;;;;;3.63;3.40;;;;;;;20.43;69.18;96118.78;5054131;28;20167;-70
2021/06/22 01:50:48;;;;;;;3.70;3.43;;;;;;;20.49;68.97;96112.47;5053445;28;20195;-69
2021/06/22 01:53:14;;;;;;;3.63;3.33;;;;;;;20.42;69.85;96117.97;5053099;28;20228;-70
2021/06/22 01:55:43;;;;;;;4.20;3.20;;;;;;;20.60;68.61;96123.31;5051248;28;20648;-67
2021/06/22 01:58:12;;;;;;;7.20;3.47;;;;;;;20.47;69.47;96132.41;5053827;28;20262;-65
2021/06/22 02:00:38;;;;;;;4.20;3.70;;;;;;;20.69;68.84;96122.63;5053742;28;20445;-69
2021/06/22 02:03:06;;;;;;;6.13;3.63;;;;;;;20.78;68.49;96119.59;5053370;28;20410;-67
2021/06/22 02:05:31;;;;;;;4.13;3.60;;;;;;;20.57;69.31;96116.59;5053341;28;20908;-68
2021/06/22 02:07:57;;;;;;;4.00;3.30;;;;;;;20.69;68.85;96127.16;5045824;28;20419;-67
2021/06/22 02:10:23;;;;;;;4.97;4.10;;;;;;;20.46;69.29;96122.81;5051587;28;20194;-68
2021/06/22 02:12:48;;;;;;;3.50;3.20;;;;;;;20.56;69.13;96128.28;5052167;28;20300;-68
2021/06/22 02:15:15;;;;;;;6.33;3.87;;;;;;;20.59;69.02;96135.78;5051627;28;20178;-69
2021/06/22 02:17:41;;;;;;;7.40;3.90;;;;;;;20.41;69.62;96132.31;5053796;28;20536;-69
2021/06/22 02:20:08;;;;;;;6.43;3.77;;;;;;;20.72;68.70;96132.78;5053280;28;20569;-70
2021/06/22 02:22:33;;;;;;;3.97;3.60;;;;;;;20.80;68.55;96144.09;5050361;28;20172;-68
2021/06/22 02:25:00;;;;;;;3.47;3.20;;;;;;;20.90;68.11;96138.94;5051322;28;20430;-70
2021/06/22 02:27:28;;;;;;;5.03;3.60;;;;;;;20.79;68.16;96142.53;5053244;28;20229;-69
2021/06/22 02:29:54;;;;;;;4.40;4.00;;;;;;;20.72;67.95;96132.78;5052547;28;20540;-70
2021/06/22 02:32:20;;;;;;;13.73;5.73;;;;;;;20.69;68.24;96135.16;5051990;28;20444;-69
2021/06/22 02:34:46;;;;;;;10.03;4.30;;;;;;;20.78;68.10;96125.72;5045592;28;20176;-68
2021/06/22 02:37:11;;;;;;;4.27;3.67;;;;;;;20.92;67.35;96134.16;5049734;28;20413;-67
2021/06/22 02:39:37;;;;;;;18.87;6.20;;;;;;;20.91;67.47;96131.75;5042999;28;20203;-68
2021/06/22 02:42:03;;;;;;;9.40;4.83;;;;;;;20.95;67.21;96133.69;5052781;28;20187;-68
2021/06/22 02:44:28;;;;;;;7.23;4.60;;;;;;;21.06;67.00;96121.31;5052497;28;20529;-69
2021/06/22 02:46:54;;;;;;;5.43;3.50;;;;;;;21.13;66.58;96129.13;5044622;28;20420;-69
2021/06/22 02:49:20;;;;;;;5.60;3.70;;;;;;;20.90;67.76;96116.84;5050902;28;20618;-70
2021/06/22 02:51:45;;;;;;;5.57;3.70;;;;;;;21.06;67.17;96124.00;5051362;28;20178;-68
2021/06/22 02:54:11;;;;;;;4.33;3.70;;;;;;;21.15;66.82;96125.16;5051779;28;20175;-69
2021/06/22 02:56:36;;;;;;;5.13;3.90;;;;;;;21.24;66.60;96117.56;5052780;28;20194;-69
2021/06/22 02:59:02;;;;;;;4.30;3.90;;;;;;;21.30;66.44;96121.09;5052634;28;20210;-70
2021/06/22 03:01:28;;;;;;;5.50;3.87;;;;;;;21.30;66.47;96121.88;5044848;28;20650;-69
2021/06/22 03:03:53;;;;;;;4.40;4.00;;;;;;;21.25;66.61;96119.19;5053120;28;20308;-70
2021/06/22 03:06:19;;;;;;;4.43;3.43;;;;;;;21.35;66.77;96115.84;5051814;28;20187;-69
2021/06/22 03:08:44;;;;;;;5.40;3.50;;;;;;;21.39;66.69;96110.81;5043686;28;20159;-69
2021/06/22 03:11:10;;;;;;;5.03;3.60;;;;;;;21.41;66.88;96116.72;5050971;28;20616;-69
2021/06/22 03:13:36;;;;;;;6.23;3.73;;;;;;;21.43;66.85;96119.91;5052048;28;20181;-69
2021/06/22 03:16:01;;;;;;;4.57;3.30;;;;;;;21.39;66.99;96118.81;5051939;28;20183;-68
2021/06/22 03:18:27;;;;;;;5.73;3.30;;;;;;;21.29;67.32;96122.97;5051983;28;20191;-69
2021/06/22 03:20:52;;;;;;;5.60;3.67;;;;;;;21.24;67.05;96120.22;5050000;28;20186;-66
2021/06/22 03:23:18;;;;;;;4.30;4.00;;;;;;;21.12;67.81;96114.22;5050700;28;20179;-70
2021/06/22 03:25:43;;;;;;;8.00;4.03;;;;;;;21.11;67.94;96112.59;5051980;28;20213;-70
2021/06/22 03:28:09;;;;;;;11.80;3.80;;;;;;;21.17;67.57;96109.75;5050696;28;20183;-68
2021/06/22 03:30:35;;;;;;;6.10;3.80;;;;;;;21.28;67.40;96113.38;5044042;28;20210;-68
2021/06/22 03:33:00;;;;;;;5.10;4.07;;;;;;;21.28;67.23;96113.38;5048173;28;20175;-69
2021/06/22 03:35:27;;;;;;;3.97;3.67;;;;;;;21.33;67.46;96100.09;5051672;28;20575;-69
2021/06/22 03:37:53;;;;;;;4.57;4.10;;;;;;;21.40;67.40;96099.91;5043418;28;20173;-68
2021/06/22 03:40:21;;;;;;;5.93;4.60;;;;;;;21.30;67.46;96100.56;5048333;28;20983;-70
2021/06/22 03:42:47;;;;;;;6.93;5.10;;;;;;;21.36;67.61;96092.66;5050176;28;20236;-70
2021/06/22 03:45:13;;;;;;;6.17;5.57;;;;;;;21.37;67.34;96086.28;5047383;28;20517;-71
2021/06/22 03:47:39;;;;;;;8.53;5.57;;;;;;;21.40;67.19;96089.25;5049521;28;20167;-69
2021/06/22 03:50:06;;;;;;;6.23;5.57;;;;;;;21.40;67.13;96088.44;5051043;28;20495;-68
2021/06/22 03:52:32;;;;;;;7.03;5.60;;;;;;;21.42;67.10;96094.34;5050974;28;20409;-68
2021/06/22 03:54:57;;;;;;;7.00;5.50;;;;;;;21.44;66.88;96093.03;5035563;28;20462;-67
2021/06/22 03:57:23;;;;;;;6.60;5.43;;;;;;;21.46;67.05;96088.25;5051165;28;20229;-69
2021/06/22 03:59:50;;;;;;;8.80;5.90;;;;;;;21.51;66.79;96098.16;5051500;28;20252;-68
2021/06/22 04:02:17;;;;;;;7.17;6.47;;;;;;;21.55;67.15;96096.59;5050118;28;20171;-69
2021/06/22 04:04:42;;;;;;;7.93;7.23;;;;;;;21.53;67.05;96103.25;5049700;28;20417;-69
2021/06/22 04:07:08;;;;;;;8.60;6.37;;;;;;;21.52;66.98;96085.63;5050365;28;20421;-69
2021/06/22 04:09:34;;;;;;;18.07;6.40;;;;;;;21.54;66.75;96102.19;5052634;28;20666;-69
2021/06/22 04:11:59;;;;;;;8.40;6.90;;;;;;;21.57;66.32;96093.69;5051891;28;20190;-68
2021/06/22 04:14:25;;;;;;;7.03;6.43;;;;;;;21.65;66.36;96087.16;5051263;28;20254;-68
2021/06/22 04:16:50;;;;;;;10.07;7.23;;;;;;;21.66;66.64;96091.44;5051334;28;20171;-68
2021/06/22 04:19:16;;;;;;;8.07;5.97;;;;;;;21.40;67.59;96083.91;5052242;28;20715;-70
2021/06/22 04:21:42;;;;;;;8.20;6.27;;;;;;;21.21;68.88;96091.41;5048988;28;20183;-69
2021/06/22 04:24:07;;;;;;;8.00;6.37;;;;;;;21.40;68.40;96088.44;5050813;28;20183;-67
2021/06/22 04:26:33;;;;;;;8.67;6.00;;;;;;;21.38;68.26;96095.88;5049829;28;20175;-68
2021/06/22 04:29:00;;;;;;;14.20;6.63;;;;;;;21.25;69.00;96097.03;5051621;28;20182;-68
2021/06/22 04:31:26;;;;;;;6.90;5.07;;;;;;;21.13;70.07;96100.63;5033387;28;20179;-68
2021/06/22 04:33:51;;;;;;;6.70;5.70;;;;;;;21.17;70.02;96096.44;5050460;28;20766;-68
2021/06/22 04:36:17;;;;;;;6.67;5.83;;;;;;;21.10;71.13;96092.34;5050660;28;20198;-70
2021/06/22 04:38:43;;;;;;;6.33;5.73;;;;;;;21.15;70.81;96097.75;5049692;28;20673;-68
2021/06/22 04:41:08;;;;;;;6.77;6.07;;;;;;;21.06;71.89;96102.69;5049382;28;20194;-69
2021/06/22 04:43:34;;;;;;;6.93;5.60;;;;;;;21.34;70.68;96106.25;5050820;28;20185;-68
2021/06/22 04:45:59;;;;;;;6.87;6.17;;;;;;;21.46;70.06;96106.09;5050676;28;20547;-67
2021/06/22 04:48:25;;;;;;;10.97;6.33;;;;;;;21.47;69.97;96099.72;5050964;28;20664;-67
2021/06/22 04:50:53;;;;;;;8.43;6.77;;;;;;;21.52;69.41;96110.44;5050665;28;20202;-68
2021/06/22 04:53:19;;;;;;;11.10;8.10;;;;;;;21.45;69.63;96107.16;5050379;28;20187;-69
2021/06/22 04:55:45;;;;;;;79.20;33.60;;;;;;;21.38;70.86;96101.22;5047029;28;20438;-69
2021/06/22 04:58:10;;;;;;;32.70;19.27;;;;;;;21.50;70.69;96099.22;5048979;28;20996;-68
2021/06/22 05:00:36;;;;;;;26.17;16.47;;;;;;;21.59;70.47;96089.75;5050258;28;20195;-68
2021/06/22 05:03:02;;;;;;;34.33;19.23;;;;;;;21.58;70.71;96095.31;5050871;28;20195;-69
2021/06/22 05:05:27;;;;;;;58.63;32.20;;;;;;;21.77;70.07;96098.47;5050236;28;20186;-70
2021/06/22 05:07:53;;;;;;;32.57;21.90;;;;;;;21.76;70.29;96095.00;5052091;28;20253;-69
2021/06/22 05:10:19;;;;;;;19.70;14.53;;;;;;;21.66;70.48;96096.75;5050298;28;20210;-70
2021/06/22 05:12:45;;;;;;;15.40;13.87;;;;;;;21.58;71.34;96103.31;5050456;28;20182;-69
2021/06/22 05:15:12;;;;;;;15.87;13.97;;;;;;;21.65;70.87;96105.81;5050122;28;20179;-70
2021/06/22 05:17:37;;;;;;;74.90;35.83;;;;;;;21.71;70.32;96112.78;5048708;28;20425;-68
2021/06/22 05:20:05;;;;;;;49.00;25.30;;;;;;;21.78;70.09;96116.09;5051522;28;20803;-69
2021/06/22 05:22:30;;;;;;;18.80;14.07;;;;;;;21.83;69.95;96124.13;5048427;28;20171;-69
2021/06/22 05:24:56;;;;;;;35.13;18.60;;;;;;;21.82;70.06;96119.06;5052568;28;20497;-68
2021/06/22 05:27:22;;;;;;;25.10;14.97;;;;;;;21.96;69.73;96128.25;5052988;28;20258;-69
2021/06/22 05:29:47;;;;;;;33.33;20.17;;;;;;;21.90;69.92;96130.09;5053767;28;20206;-69
2021/06/22 05:32:13;;;;;;;41.13;22.17;;;;;;;21.78;71.24;96138.22;5053603;28;20190;-69
2021/06/22 05:34:39;;;;;;;33.90;21.37;;;;;;;21.77;71.27;96138.47;5052227;28;20189;-68
2021/06/22 05:37:04;;;;;;;34.03;20.43;;;;;;;22.03;70.56;96138.75;5046474;28;20188;-69
2021/06/22 05:39:30;;;;;;;18.67;14.77;;;;;;;21.85;71.41;96138.00;5053400;28;20257;-69
2021/06/22 05:41:55;;;;;;;17.60;15.70;;;;;;;21.98;71.18;96146.69;5053686;28;20642;-69
2021/06/22 05:44:21;;;;;;;16.60;13.50;;;;;;;22.07;70.40;96145.16;5053160;28;20171;-68
2021/06/22 05:46:47;;;;;;;16.13;13.67;;;;;;;22.09;70.54;96143.88;5053814;28;20179;-68
2021/06/22 05:49:13;;;;;;;23.90;14.40;;;;;;;21.94;70.85;96147.16;5052636;28;20203;-68
2021/06/22 05:51:38;;;;;;;30.03;19.27;;;;;;;22.03;70.31;96146.75;5053525;28;20790;-69
2021/06/22 05:54:04;;;;;;;33.53;19.40;;;;;;;21.91;70.42;96144.19;5051068;28;20179;-69
2021/06/22 05:56:30;;;;;;;99.30;43.77;;;;;;;22.03;70.42;96144.88;5043483;28;20247;-69
2021/06/22 05:58:56;;;;;;;43.23;22.83;;;;;;;21.93;70.66;96150.09;5054209;28;20199;-70
2021/06/22 06:01:21;;;;;;;15.73;14.00;;;;;;;21.43;72.31;96157.22;5054039;28;20613;-69
2021/06/22 06:03:47;;;;;;;16.20;14.50;;;;;;;21.29;72.56;96167.44;5052763;28;20437;-69
2021/06/22 06:06:12;;;;;;;24.20;15.77;;;;;;;21.65;71.95;96164.47;5052776;28;20190;-69
2021/06/22 06:08:38;;;;;;;15.27;13.20;;;;;;;21.17;73.48;96170.22;5038044;28;20171;-68
2021/06/22 06:11:04;;;;;;;20.83;14.13;;;;;;;21.19;74.00;96165.44;5052105;28;20205;-63
2021/06/22 06:13:39;;;;;;;16.77;13.07;;;;;;;21.48;73.99;96165.28;5052222;28;20167;-64
2021/06/22 06:16:06;;;;;;;15.43;11.30;;;;;;;21.77;71.55;96167.78;5035512;28;20437;-64
2021/06/22 06:18:32;;;;;;;7.80;7.00;;;;;;;22.28;70.57;96156.03;5051758;28;20453;-64
2021/06/22 06:20:59;;;;;;;7.47;5.90;;;;;;;23.50;64.18;96167.06;5050232;28;20444;-64
2021/06/22 06:23:29;;;;;;;13.73;9.40;;;;;;;23.55;61.75;96172.44;5052734;28;20414;-64
2021/06/22 06:25:55;;;;;;;4.10;3.53;;;;;;;24.31;59.87;96171.09;5051355;28;20459;-64
2021/06/22 06:28:31;;;;;;;6.97;6.00;;;;;;;24.75;58.20;96190.41;5051764;28;20561;-64
2021/06/22 06:30:57;;;;;;;11.90;7.43;;;;;;;25.36;55.60;96186.03;5052732;28;20628;-65
2021/06/22 06:33:22;;;;;;;9.57;6.77;;;;;;;25.70;54.96;96180.84;5051120;28;20418;-65
2021/06/22 06:35:48;;;;;;;8.93;6.13;;;;;;;25.47;55.61;96184.97;5051773;28;20183;-65
2021/06/22 06:38:14;;;;;;;8.23;6.30;;;;;;;25.33;56.21;96189.28;5047696;28;20183;-65
2021/06/22 06:40:40;;;;;;;8.77;5.83;;;;;;;25.51;55.80;96191.38;5052093;28;20572;-64
2021/06/22 06:43:06;;;;;;;13.80;7.20;;;;;;;25.47;55.10;96187.63;5050430;28;20241;-64
2021/06/22 06:45:31;;;;;;;12.37;6.87;;;;;;;25.18;56.43;96188.25;5052090;28;20414;-65
2021/06/22 06:47:57;;;;;;;7.10;6.10;;;;;;;25.47;55.55;96190.31;5052913;28;20175;-65
2021/06/22 06:50:23;;;;;;;17.50;10.67;;;;;;;25.62;55.09;96197.53;5052525;28;20195;-65
2021/06/22 06:52:48;;;;;;;5.67;5.17;;;;;;;25.44;55.88;96204.28;5051292;28;20175;-65
2021/06/22 06:55:27;;;;;;;17.53;11.00;;;;;;;24.53;57.88;96196.81;5051320;28;20266;-64
2021/06/22 06:57:54;;;;;;;14.30;8.50;;;;;;;25.03;56.63;96193.63;5052031;28;20760;-65
2021/06/22 07:00:20;;;;;;;6.10;5.50;;;;;;;25.95;53.84;96191.75;5050598;28;20468;-64
2021/06/22 07:02:46;;;;;;;6.80;4.87;;;;;;;26.43;52.54;96186.66;5051741;28;20418;-64
2021/06/22 07:05:11;;;;;;;5.23;4.20;;;;;;;26.68;51.37;96195.63;5051311;28;20907;-64
2021/06/22 07:07:37;;;;;;;5.70;3.50;;;;;;;27.03;49.78;96204.47;5049184;28;20171;-64
2021/06/22 07:10:03;;;;;;;6.87;4.30;;;;;;;27.20;48.28;96211.31;5051511;28;20282;-65
2021/06/22 07:12:28;;;;;;;4.43;3.97;;;;;;;27.46;48.73;96209.19;5050809;28;20542;-65
2021/06/22 07:14:54;;;;;;;6.30;4.43;;;;;;;27.39;48.78;96212.19;5050222;28;20179;-65
2021/06/22 07:17:20;;;;;;;6.10;4.53;;;;;;;26.96;48.48;96212.09;5050699;28;20190;-63
2021/06/22 07:19:45;;;;;;;5.47;4.53;;;;;;;27.11;47.85;96220.00;5049812;28;20310;-65
2021/06/22 07:22:11;;;;;;;4.00;3.03;;;;;;;26.86;48.41;96226.41;5048711;28;20182;-65
2021/06/22 07:24:36;;;;;;;7.20;4.47;;;;;;;27.00;46.57;96231.91;5049856;28;20183;-65
2021/06/22 07:27:02;;;;;;;3.93;3.00;;;;;;;27.25;46.21;96227.41;5051471;28;20179;-65
2021/06/22 07:29:28;;;;;;;4.50;3.93;;;;;;;27.28;47.67;96226.84;5050645;28;20203;-64
2021/06/22 07:31:53;;;;;;;3.50;3.20;;;;;;;27.16;47.72;96224.50;5051284;28;20179;-66
2021/06/22 07:34:19;;;;;;;5.70;3.80;;;;;;;27.07;47.41;96232.41;5050822;28;20685;-65
2021/06/22 07:36:45;;;;;;;5.63;3.60;;;;;;;27.22;46.88;96234.16;5041553;28;20190;-65
2021/06/22 07:39:11;;;;;;;9.97;6.20;;;;;;;27.39;46.48;96233.72;5046581;28;20476;-65
2021/06/22 07:41:36;;;;;;;3.60;3.17;;;;;;;27.31;46.75;96237.03;5051485;28;20266;-65
2021/06/22 07:44:06;;;;;;;5.33;3.50;;;;;;;26.19;49.33;96246.44;5051807;28;20232;-65
2021/06/22 07:46:34;;;;;;;4.63;3.80;;;;;;;25.79;49.82;96245.47;5051339;28;20513;-65
2021/06/22 07:49:00;;;;;;;7.80;2.70;;;;;;;25.85;48.47;96241.69;5050434;28;20455;-65
2021/06/22 07:51:25;;;;;;;6.37;2.97;;;;;;;26.19;49.95;96230.31;5050013;28;20182;-65
2021/06/22 07:53:51;;;;;;;2.87;2.67;;;;;;;26.51;48.93;96226.34;5050449;28;20270;-63
2021/06/22 07:56:16;;;;;;;3.87;3.37;;;;;;;25.79;50.34;96241.97;5051402;28;20285;-66
2021/06/22 07:58:42;;;;;;;7.53;3.60;;;;;;;25.92;49.97;96241.41;5050828;28;20213;-65
2021/06/22 08:01:08;;;;;;;5.07;2.70;;;;;;;25.91;49.98;96229.88;5049834;28;20202;-64
2021/06/22 08:03:34;;;;;;;2.97;2.53;;;;;;;26.27;49.33;96231.63;5050676;28;20175;-65
2021/06/22 08:05:59;;;;;;;4.53;2.20;;;;;;;25.54;50.18;96236.44;5046956;28;20188;-64
2021/06/22 08:08:25;;;;;;;3.03;2.00;;;;;;;24.76;50.15;96230.31;5031055;28;20440;-64
2021/06/22 08:10:53;;;;;;;6.23;1.80;;;;;;;24.71;51.23;96234.88;5030277;28;20196;-63
2021/06/22 08:13:19;;;;;;;2.50;2.00;;;;;;;24.92;50.26;96230.31;5049056;28;20183;-63
2021/06/22 08:15:45;;;;;;;2.53;2.30;;;;;;;25.35;48.21;96230.00;5041403;28;20455;-64
2021/06/22 08:18:11;;;;;;;8.43;3.90;;;;;;;25.38;49.24;96224.09;5035516;28;20438;-63
2021/06/22 08:20:37;;;;;;;5.33;2.20;;;;;;;25.20;49.99;96226.31;5050485;28;20261;-64
2021/06/22 08:23:04;;;;;;;20.43;8.00;;;;;;;25.31;50.88;96232.44;5047489;28;20181;-63
2021/06/22 08:25:30;;;;;;;35.53;11.90;;;;;;;25.56;50.14;96234.28;5047118;28;20517;-64
2021/06/22 08:27:56;;;;;;;4.73;3.20;;;;;;;25.37;50.76;96235.91;5006901;28;20422;-64
2021/06/22 08:30:24;;;;;;;4.27;2.80;;;;;;;25.27;52.28;96226.81;5044712;28;20430;-63
2021/06/22 08:32:50;;;;;;;9.80;5.00;;;;;;;24.98;53.99;96221.22;5032868;28;20425;-64
2021/06/22 08:35:16;;;;;;;4.90;3.20;;;;;;;24.68;54.62;96220.94;5033667;28;20423;-66
2021/06/22 08:37:42;;;;;;;10.13;5.50;;;;;;;24.82;54.26;96231.16;5027838;28;20456;-64
2021/06/22 08:40:10;;;;;;;41.57;14.37;;;;;;;25.20;53.53;96237.03;5021020;28;20219;-65
2021/06/22 08:42:38;;;;;;;13.90;5.80;;;;;;;25.21;53.67;96233.25;5024695;28;20992;-64
2021/06/22 08:45:06;;;;;;;23.53;9.43;;;;;;;24.41;56.49;96231.06;5025890;28;20426;-65
2021/06/22 08:47:32;;;;;;;26.40;10.10;;;;;;;23.89;57.63;96225.53;5025615;28;20421;-65
2021/06/22 08:49:58;;;;;;;29.63;11.40;;;;;;;24.21;56.50;96222.72;5023096;28;20432;-64
2021/06/22 08:52:29;;;;;;;69.80;20.43;;;;;;;23.98;58.01;96229.34;5027218;28;20469;-64
2021/06/22 08:54:55;;;;;;;15.87;4.97;;;;;;;23.82;57.88;96231.13;5023694;28;20189;-65
2021/06/22 08:57:21;;;;;;;5.77;3.73;;;;;;;23.65;59.56;96234.00;5027933;28;20418;-64
2021/06/22 08:59:47;;;;;;;7.83;4.90;;;;;;;24.18;58.40;96235.84;5051215;28;20709;-63
2021/06/22 09:02:14;;;;;;;11.43;4.23;;;;;;;24.19;58.63;96235.56;5061743;28;20429;-64
2021/06/22 09:04:39;;;;;;;6.33;4.17;;;;;;;24.36;57.03;96247.94;5053122;28;20464;-63
2021/06/22 09:07:05;;;;;;;3.63;3.33;;;;;;;24.53;57.29;96235.09;5051631;28;20456;-65
2021/06/22 09:09:35;;;;;;;3.97;3.07;;;;;;;24.44;57.10;96246.59;5055414;28;20202;-63
2021/06/22 09:12:11;;;;;;;3.83;3.40;;;;;;;24.34;54.94;96236.66;5045914;28;20231;-64
2021/06/22 09:14:41;;;;;;;15.87;6.37;;;;;;;24.23;56.45;96238.50;5058880;28;20422;-63
2021/06/22 09:17:08;;;;;;;6.73;4.13;;;;;;;23.76;57.13;96251.69;5061349;28;20433;-63
2021/06/22 09:19:34;;;;;;;10.80;6.20;;;;;;;24.26;55.93;96246.03;5047162;28;20595;-64
2021/06/22 09:22:17;;;;;;;19.23;7.20;;;;;;;24.31;56.02;96261.28;5052357;28;20417;-64
2021/06/22 09:25:03;;;;;;;23.77;9.07;;;;;;;23.94;57.45;96260.34;5054330;28;20974;-63
2021/06/22 09:27:47;;;;;;;12.40;5.90;;;;;;;23.56;59.87;96248.94;5039685;28;21062;-64
2021/06/22 09:30:14;;;;;;;8.43;5.13;;;;;;;23.17;61.55;96256.13;5054940;28;20445;-65
2021/06/22 09:32:40;;;;;;;9.70;5.23;;;;;;;23.56;60.83;96264.97;5053209;28;20436;-64
2021/06/22 09:35:26;;;;;;;17.60;8.30;;;;;;;24.15;59.06;96271.94;5054224;28;20430;-64
2021/06/22 09:37:55;;;;;;;29.47;10.30;;;;;;;23.65;59.81;96284.81;5038374;28;20971;-66
2021/06/22 09:40:27;;;;;;;67.97;19.90;;;;;;;23.77;59.54;96281.91;5028063;28;20484;-65
2021/06/22 09:42:57;;;;;;;27.70;10.40;;;;;;;23.63;58.22;96286.91;5051051;28;20426;-63
2021/06/22 09:45:24;;;;;;;12.40;6.90;;;;;;;24.16;58.23;96288.81;5046784;28;20431;-64
2021/06/22 09:47:49;;;;;;;15.40;7.60;;;;;;;24.57;56.85;96280.91;5030038;28;20466;-65
2021/06/22 09:50:48;;;;;;;12.63;7.10;;;;;;;24.29;58.08;96287.50;5028672;28;20950;-65
2021/06/22 09:53:24;;;;;;;15.83;8.10;;;;;;;24.36;57.51;96288.88;5040044;28;20187;-65
2021/06/22 09:55:49;;;;;;;12.70;10.00;;;;;;;23.61;59.71;96291.72;5049138;28;20432;-65
2021/06/22 09:58:15;;;;;;;10.07;8.43;;;;;;;23.08;61.61;96281.69;5051422;28;20425;-64
2021/06/22 10:00:41;;;;;;;10.57;7.60;;;;;;;23.37;61.51;96278.75;5048019;28;20210;-64
2021/06/22 10:03:06;;;;;;;15.63;7.90;;;;;;;22.99;62.88;96289.41;5051362;28;20658;-65
2021/06/22 10:05:50;;;;;;;12.57;9.57;;;;;;;22.52;64.38;96290.81;5046379;28;20202;-67
2021/06/22 10:08:16;;;;;;;9.20;7.63;;;;;;;23.09;62.88;96279.84;5050121;28;20231;-64
2021/06/22 10:10:41;;;;;;;13.37;8.00;;;;;;;22.58;64.89;96290.84;5042486;28;20997;-63
2021/06/22 10:13:07;;;;;;;8.07;7.23;;;;;;;23.27;61.55;96284.81;5053103;28;20185;-64
2021/06/22 10:15:33;;;;;;;6.10;5.60;;;;;;;23.63;60.71;96294.94;5048003;28;20321;-64
2021/06/22 10:17:59;;;;;;;10.40;6.50;;;;;;;23.44;60.98;96306.03;5046654;28;20864;-64
2021/06/22 10:20:25;;;;;;;12.77;6.20;;;;;;;23.65;61.01;96305.38;5052883;28;20228;-63
2021/06/22 10:22:51;;;;;;;7.50;6.90;;;;;;;23.40;60.07;96306.81;5050216;28;20815;-63
2021/06/22 10:25:17;;;;;;;9.13;6.27;;;;;;;23.41;60.65;96311.94;5043189;28;20183;-63
2021/06/22 10:27:43;;;;;;;6.70;6.00;;;;;;;22.96;61.99;96305.94;5052754;28;20420;-63
2021/06/22 10:30:10;;;;;;;6.90;6.30;;;;;;;22.90;62.11;96306.94;5053052;28;20438;-65
2021/06/22 10:32:36;;;;;;;10.70;5.97;;;;;;;22.72;61.72;96326.78;5052827;28;20210;-64
2021/06/22 10:35:14;;;;;;;5.30;4.80;;;;;;;22.55;61.53;96318.88;5043808;28;20422;-62
2021/06/22 10:37:47;;;;;;;4.60;3.97;;;;;;;22.64;61.04;96335.25;5025586;28;20409;-64
2021/06/22 10:40:24;;;;;;;5.13;4.67;;;;;;;22.70;60.98;96334.25;5035634;28;20548;-64
2021/06/22 10:42:58;;;;;;;6.30;4.77;;;;;;;22.75;61.17;96331.63;5035108;28;20517;-64
2021/06/22 10:45:24;;;;;;;7.00;5.07;;;;;;;22.84;61.76;96332.00;5052236;28;20443;-64
2021/06/22 10:47:50;;;;;;;34.43;11.23;;;;;;;22.25;63.90;96328.94;5052249;28;20574;-65
2021/06/22 10:50:19;;;;;;;11.70;7.40;;;;;;;22.18;64.05;96336.28;5052126;28;20441;-65
2021/06/22 10:52:49;;;;;;;25.80;8.77;;;;;;;22.42;63.75;96330.75;5050359;28;20183;-65
2021/06/22 10:55:20;;;;;;;15.03;7.17;;;;;;;22.58;62.65;96330.91;5052289;28;20430;-65
2021/06/22 10:58:02;;;;;;;21.27;9.80;;;;;;;22.82;62.39;96337.56;5052388;28;20483;-64
2021/06/22 11:00:30;;;;;;;13.27;5.63;;;;;;;21.52;64.08;96338.81;5044290;28;20564;-64
2021/06/22 11:02:58;;;;;;;7.90;5.00;;;;;;;22.11;63.50;96341.03;5051622;28;20461;-64
2021/06/22 11:05:24;;;;;;;21.07;9.37;;;;;;;21.75;63.64;96343.22;5051662;28;20429;-64
2021/06/22 11:08:08;;;;;;;25.17;10.17;;;;;;;22.31;63.84;96345.81;5049828;28;20441;-65
2021/06/22 11:10:34;;;;;;;27.13;11.30;;;;;;;21.99;63.10;96348.31;5038346;28;20815;-65
2021/06/22 11:13:00;;;;;;;13.40;7.37;;;;;;;22.45;61.26;96353.47;5043810;28;20432;-65
2021/06/22 11:15:49;;;;;;;16.87;8.23;;;;;;;21.87;62.84;96349.25;5033399;28;21000;-65
2021/06/22 11:18:17;;;;;;;9.30;7.87;;;;;;;21.01;65.56;96348.44;5051228;28;20211;-63
2021/06/22 11:21:02;;;;;;;12.13;8.27;;;;;;;21.60;64.83;96347.25;5051171;28;21003;-63
2021/06/22 11:23:28;;;;;;;21.70;13.60;;;;;;;21.84;64.42;96347.06;5036860;28;20471;-64
2021/06/22 11:26:03;;;;;;;9.23;8.33;;;;;;;21.11;66.46;96333.66;5052044;28;20421;-64
2021/06/22 11:28:53;;;;;;;10.57;9.13;;;;;;;21.44;67.38;96345.38;5052207;28;20191;-65